createdAt,value
2019-02-02T00:02:05.693Z,19.70
2019-02-02T00:05:00.520Z,19.60
2019-02-02T00:07:55.609Z,19.60
2019-02-02T00:10:50.060Z,19.60
2019-02-02T00:13:45.370Z,19.60
2019-02-02T00:16:40.108Z,19.60
2019-02-02T00:19:34.830Z,19.60
2019-02-02T00:22:29.735Z,19.60
2019-02-02T00:25:24.973Z,19.60
2019-02-02T00:28:19.842Z,19.50
2019-02-02T00:31:14.830Z,19.50
2019-02-02T00:34:09.841Z,19.50
2019-02-02T00:37:04.914Z,19.50
2019-02-02T00:39:59.711Z,19.40
2019-02-02T00:42:54.454Z,19.40
2019-02-02T00:45:48.800Z,19.40
2019-02-02T00:48:43.504Z,19.40
2019-02-02T00:51:38.163Z,19.40
2019-02-02T00:54:32.817Z,19.30
2019-02-02T00:57:27.288Z,19.30
2019-02-02T01:00:22.034Z,19.30
2019-02-02T01:03:16.837Z,19.30
2019-02-02T01:06:11.442Z,19.30
2019-02-02T01:09:06.878Z,19.30
2019-02-02T01:12:01.406Z,19.30
2019-02-02T01:14:56.088Z,19.30
2019-02-02T01:17:50.883Z,19.30
2019-02-02T01:20:45.479Z,19.30
2019-02-02T01:23:40.613Z,19.30
2019-02-02T01:26:35.408Z,19.30
2019-02-02T01:29:29.813Z,19.40
2019-02-02T01:32:24.409Z,19.40
2019-02-02T01:35:20.040Z,19.40
2019-02-02T01:38:14.729Z,19.40
2019-02-02T01:41:09.259Z,19.50
2019-02-02T01:44:04.047Z,19.50
2019-02-02T01:46:58.743Z,19.50
2019-02-02T01:49:53.207Z,19.60
2019-02-02T01:52:47.698Z,19.50
2019-02-02T01:55:42.639Z,19.60
2019-02-02T01:58:37.117Z,19.60
2019-02-02T02:01:31.857Z,19.70
2019-02-02T02:04:26.493Z,19.70
2019-02-02T02:07:21.249Z,19.70
2019-02-02T02:10:16.599Z,19.70
2019-02-02T02:13:11.634Z,19.80
2019-02-02T02:16:06.070Z,19.80
2019-02-02T02:19:00.822Z,19.80
2019-02-02T02:21:59.298Z,19.80
2019-02-02T02:24:54.212Z,19.80
2019-02-02T02:27:49.214Z,19.80
2019-02-02T02:30:47.118Z,19.80
2019-02-02T02:33:39.426Z,19.90
2019-02-02T02:36:33.888Z,19.90
2019-02-02T02:39:29.211Z,19.90
2019-02-02T02:42:24.178Z,19.90
2019-02-02T02:45:18.791Z,20.00
2019-02-02T02:48:17.123Z,20.00
2019-02-02T02:51:11.872Z,20.00
2019-02-02T02:54:10.371Z,20.10
2019-02-02T02:57:05.997Z,20.10
2019-02-02T03:00:00.473Z,20.20
2019-02-02T03:02:55.475Z,20.20
2019-02-02T03:05:50.168Z,20.30
2019-02-02T03:08:44.688Z,20.30
2019-02-02T03:11:40.080Z,20.40
2019-02-02T03:14:34.730Z,20.40
2019-02-02T03:17:29.304Z,20.40
2019-02-02T03:20:24.377Z,20.50
2019-02-02T03:23:22.239Z,20.50
2019-02-02T03:26:16.858Z,20.50
2019-02-02T03:29:11.628Z,20.60
2019-02-02T03:32:06.729Z,20.60
2019-02-02T03:35:01.236Z,20.70
2019-02-02T03:37:56.267Z,20.70
2019-02-02T03:40:50.752Z,20.80
2019-02-02T03:43:49.214Z,20.80
2019-02-02T03:46:44.359Z,20.90
2019-02-02T03:49:39.028Z,20.90
2019-02-02T03:52:33.527Z,21.00
2019-02-02T03:55:28.071Z,21.10
2019-02-02T03:58:22.826Z,21.10
2019-02-02T04:01:17.304Z,21.20
2019-02-02T04:04:11.665Z,21.20
2019-02-02T04:07:06.075Z,21.30
2019-02-02T04:10:00.931Z,21.40
2019-02-02T04:12:55.782Z,21.40
2019-02-02T04:15:50.873Z,21.40
2019-02-02T04:18:47.014Z,21.50
2019-02-02T04:21:42.351Z,21.50
2019-02-02T04:24:38.010Z,21.60
2019-02-02T04:27:33.343Z,21.60
2019-02-02T04:30:30.039Z,21.70
2019-02-02T04:33:24.683Z,21.70
2019-02-02T04:36:19.378Z,21.80
2019-02-02T04:39:14.147Z,21.80
2019-02-02T04:42:08.856Z,21.90
2019-02-02T04:45:04.300Z,22.00
2019-02-02T04:47:58.841Z,22.10
2019-02-02T04:50:53.735Z,22.10
2019-02-02T04:53:48.592Z,22.20
2019-02-02T04:56:45.987Z,22.30
2019-02-02T04:59:41.368Z,22.30
2019-02-02T05:02:39.931Z,22.40
2019-02-02T05:05:35.812Z,22.40
2019-02-02T05:08:30.679Z,22.50
2019-02-02T05:11:26.046Z,22.60
2019-02-02T05:14:23.973Z,22.70
2019-02-02T05:17:20.154Z,22.70
2019-02-02T05:20:18.880Z,22.80
2019-02-02T05:23:18.880Z,22.90
2019-02-02T05:26:15.902Z,22.90
2019-02-02T05:29:15.598Z,23.00
2019-02-02T05:32:17.599Z,23.10
2019-02-02T05:35:31.085Z,23.10
2019-02-02T05:48:44.471Z,23.50
2019-02-02T05:54:55.869Z,23.60
2019-02-02T05:57:59.169Z,23.70
2019-02-02T06:00:59.230Z,23.80
2019-02-02T06:03:56.328Z,23.90
2019-02-02T06:07:12.503Z,24.00
2019-02-02T06:10:23.178Z,24.10
2019-02-02T06:16:26.201Z,24.30
2019-02-02T06:22:45.588Z,24.40
2019-02-02T06:25:42.383Z,24.50
2019-02-02T06:28:38.357Z,24.60
2019-02-02T06:31:33.412Z,24.70
2019-02-02T06:34:38.533Z,24.80
2019-02-02T06:37:28.645Z,24.90
2019-02-02T06:40:30.622Z,25.00
2019-02-02T06:43:30.161Z,25.10
2019-02-02T06:46:23.031Z,25.20
2019-02-02T06:49:18.092Z,25.20
2019-02-02T06:52:16.357Z,25.30
2019-02-02T06:55:13.298Z,25.30
2019-02-02T06:58:08.820Z,25.40
2019-02-02T07:01:14.455Z,25.50
2019-02-02T07:10:36.383Z,25.80
2019-02-02T07:13:43.921Z,26.00
2019-02-02T07:20:03.885Z,26.40
2019-02-02T07:23:04.169Z,26.70
2019-02-02T07:26:40.866Z,26.80
2019-02-02T07:32:44.859Z,27.20
2019-02-02T07:35:53.963Z,27.40
2019-02-02T07:38:50.418Z,27.50
2019-02-02T07:41:48.551Z,27.60
2019-02-02T07:45:00.381Z,27.70
2019-02-02T07:48:02.462Z,27.70
2019-02-02T07:51:03.218Z,27.80
2019-02-02T07:54:14.278Z,27.80
2019-02-02T07:57:32.590Z,27.90
2019-02-02T08:00:47.347Z,27.90
2019-02-02T08:03:52.434Z,28.00
2019-02-02T08:06:51.102Z,28.00
2019-02-02T08:09:46.261Z,28.00
2019-02-02T08:12:42.805Z,28.00
2019-02-02T08:15:55.458Z,28.00
2019-02-02T08:18:48.700Z,28.10
2019-02-02T08:21:51.520Z,28.10
2019-02-02T08:24:47.667Z,28.20
2019-02-02T08:27:42.315Z,28.20
2019-02-02T08:30:38.062Z,28.20
2019-02-02T08:33:33.122Z,28.20
2019-02-02T08:36:33.784Z,28.30
2019-02-02T08:39:45.187Z,28.30
2019-02-02T08:42:44.053Z,28.30
2019-02-02T08:45:40.440Z,28.20
2019-02-02T08:48:38.782Z,28.20
2019-02-02T08:52:08.472Z,28.30
2019-02-02T08:55:16.968Z,28.30
2019-02-02T08:58:25.915Z,28.40
2019-02-02T09:01:27.414Z,28.40
2019-02-02T09:04:44.546Z,28.50
2019-02-02T09:07:38.322Z,28.70
2019-02-02T09:10:36.415Z,28.80
2019-02-02T09:13:32.603Z,29.00
2019-02-02T09:16:34.014Z,29.20
2019-02-02T09:19:29.732Z,29.30
2019-02-02T09:22:37.155Z,29.50
2019-02-02T09:25:34.208Z,29.60
2019-02-02T09:28:29.027Z,29.70
2019-02-02T09:31:24.002Z,29.90
2019-02-02T09:34:19.274Z,30.00
2019-02-02T09:37:15.308Z,30.10
2019-02-02T09:40:12.114Z,30.30
2019-02-02T09:43:08.387Z,30.50
2019-02-02T09:46:04.801Z,30.80
2019-02-02T09:49:03.981Z,31.10
2019-02-02T09:52:18.793Z,31.30
2019-02-02T09:55:16.386Z,31.50
2019-02-02T09:58:13.656Z,31.70
2019-02-02T10:01:37.286Z,31.80
2019-02-02T10:04:34.444Z,31.90
2019-02-02T10:07:29.170Z,31.80
2019-02-02T10:10:26.445Z,31.70
2019-02-02T10:13:21.729Z,31.60
2019-02-02T10:16:17.842Z,31.50
2019-02-02T10:19:14.598Z,31.30
2019-02-02T10:25:35.865Z,31.00
2019-02-02T10:28:31.497Z,30.80
2019-02-02T10:31:38.926Z,30.70
2019-02-02T10:34:24.872Z,30.50
2019-02-02T10:37:21.026Z,30.40
2019-02-02T10:40:17.055Z,30.30
2019-02-02T10:43:14.770Z,30.20
2019-02-02T10:46:10.800Z,30.10
2019-02-02T10:49:06.042Z,30.00
2019-02-02T10:52:01.555Z,29.90
2019-02-02T10:55:03.000Z,29.90
2019-02-02T10:58:01.978Z,29.80
2019-02-02T11:01:09.875Z,29.70
2019-02-02T11:04:35.851Z,29.70
2019-02-02T11:07:27.760Z,29.60
2019-02-02T11:10:29.926Z,29.50
2019-02-02T11:13:25.274Z,29.40
2019-02-02T11:16:22.857Z,29.30
2019-02-02T11:19:32.349Z,29.30
2019-02-02T11:22:29.203Z,29.20
2019-02-02T11:25:40.256Z,29.10
2019-02-02T11:28:45.325Z,29.00
2019-02-02T11:31:43.674Z,28.90
2019-02-02T11:34:37.317Z,28.80
2019-02-02T11:37:37.362Z,28.70
2019-02-02T11:40:47.010Z,28.70
2019-02-02T11:43:45.369Z,28.60
2019-02-02T11:46:48.878Z,28.50
2019-02-02T11:49:42.842Z,28.40
2019-02-02T11:52:38.306Z,28.20
2019-02-02T11:55:34.915Z,28.20
2019-02-02T11:58:30.187Z,28.10
2019-02-02T12:01:25.088Z,28.00
2019-02-02T12:04:20.526Z,27.80
2019-02-02T12:07:15.613Z,27.80
2019-02-02T12:10:12.348Z,27.70
2019-02-02T12:13:10.008Z,27.60
2019-02-02T12:16:05.639Z,27.40
2019-02-02T12:19:05.133Z,27.40
2019-02-02T12:22:00.471Z,27.20
2019-02-02T12:24:55.761Z,27.20
2019-02-02T12:27:50.913Z,27.10
2019-02-02T12:30:46.155Z,27.00
2019-02-02T12:33:40.788Z,26.90
2019-02-02T12:36:36.898Z,26.80
2019-02-02T12:39:34.913Z,26.70
2019-02-02T12:42:29.522Z,26.60
2019-02-02T12:45:27.151Z,26.60
2019-02-02T12:48:23.027Z,26.50
2019-02-02T12:51:18.854Z,26.40
2019-02-02T12:54:37.196Z,26.40
2019-02-02T12:57:45.908Z,26.30
2019-02-02T13:00:45.602Z,26.20
2019-02-02T13:03:45.000Z,26.10
2019-02-02T13:06:39.908Z,26.10
2019-02-02T13:09:37.283Z,26.00
2019-02-02T13:12:33.593Z,25.90
2019-02-02T13:15:29.403Z,25.90
2019-02-02T13:18:24.120Z,25.90
2019-02-02T13:21:18.927Z,25.80
2019-02-02T13:24:17.119Z,25.80
2019-02-02T13:27:12.360Z,25.70
2019-02-02T13:30:08.235Z,25.70
2019-02-02T13:33:03.510Z,25.60
2019-02-02T13:36:00.340Z,25.60
2019-02-02T13:39:03.562Z,25.50
2019-02-02T13:42:00.674Z,25.50
2019-02-02T13:45:17.483Z,25.50
2019-02-02T13:48:13.006Z,25.50
2019-02-02T13:51:08.080Z,25.40
2019-02-02T13:54:02.811Z,25.40
2019-02-02T13:57:00.893Z,25.30
2019-02-02T13:59:56.645Z,25.30
2019-02-02T14:03:04.579Z,25.20
2019-02-02T14:06:02.612Z,25.20
2019-02-02T14:08:57.841Z,25.20
2019-02-02T14:11:53.086Z,25.10
2019-02-02T14:14:56.331Z,25.10
2019-02-02T14:17:51.978Z,25.10
2019-02-02T14:20:56.884Z,25.00
2019-02-02T14:28:34.976Z,25.00
2019-02-02T14:31:30.481Z,25.00
2019-02-02T14:34:25.566Z,25.00
2019-02-02T14:37:22.335Z,24.90
2019-02-02T14:40:18.883Z,24.90
2019-02-02T14:43:14.023Z,24.90
2019-02-02T14:46:16.917Z,24.80
2019-02-02T14:49:17.199Z,24.80
2019-02-02T14:52:12.613Z,24.70
2019-02-02T14:55:07.987Z,24.70
2019-02-02T14:58:02.958Z,24.60
2019-02-02T15:00:58.324Z,24.60
2019-02-02T15:03:54.057Z,24.60
2019-02-02T15:06:49.032Z,24.50
2019-02-02T15:09:44.755Z,24.50
2019-02-02T15:12:40.008Z,24.50
2019-02-02T15:15:37.792Z,24.50
2019-02-02T15:18:36.188Z,24.40
2019-02-02T15:21:31.274Z,24.40
2019-02-02T15:24:26.352Z,24.40
2019-02-02T15:27:21.325Z,24.40
2019-02-02T15:30:18.859Z,24.40
2019-02-02T15:33:14.204Z,24.30
2019-02-02T15:36:09.536Z,24.30
2019-02-02T15:39:05.413Z,24.30
2019-02-02T15:42:00.681Z,24.20
2019-02-02T15:44:56.760Z,24.20
2019-02-02T15:47:52.047Z,24.20
2019-02-02T15:50:47.615Z,24.20
2019-02-02T15:53:42.528Z,24.20
2019-02-02T15:59:40.925Z,24.10
2019-02-02T16:02:35.872Z,24.10
2019-02-02T16:05:31.748Z,24.10
2019-02-02T16:08:30.573Z,24.10
2019-02-02T16:11:29.237Z,24.00
2019-02-02T16:14:22.371Z,24.00
2019-02-02T16:17:17.594Z,24.00
2019-02-02T16:20:16.099Z,24.00
2019-02-02T16:23:10.933Z,24.00
2019-02-02T16:26:05.985Z,23.90
2019-02-02T16:29:00.915Z,23.90
2019-02-02T16:31:57.380Z,23.90
2019-02-02T16:34:52.410Z,23.90
2019-02-02T16:37:47.161Z,23.90
2019-02-02T16:40:42.006Z,23.90
2019-02-02T16:43:36.822Z,23.90
2019-02-02T16:46:32.778Z,23.80
2019-02-02T16:49:27.717Z,23.80
2019-02-02T16:52:22.384Z,23.80
2019-02-02T16:55:17.471Z,23.80
2019-02-02T16:58:12.165Z,23.80
2019-02-02T17:01:07.247Z,23.70
2019-02-02T17:04:08.509Z,23.70
2019-02-02T17:06:57.995Z,23.70
2019-02-02T17:09:55.833Z,23.70
2019-02-02T17:12:50.830Z,23.70
2019-02-02T17:15:45.605Z,23.70
2019-02-02T17:18:41.391Z,23.70
2019-02-02T17:21:40.161Z,23.60
2019-02-02T17:24:38.226Z,23.60
2019-02-02T17:27:33.817Z,23.50
2019-02-02T17:30:29.449Z,23.50
2019-02-02T17:33:26.609Z,23.50
2019-02-02T17:36:19.656Z,23.40
2019-02-02T17:39:14.363Z,23.40
2019-02-02T17:42:10.801Z,23.30
2019-02-02T17:45:06.092Z,23.30
2019-02-02T17:48:00.756Z,23.20
2019-02-02T17:50:55.715Z,23.20
2019-02-02T17:53:50.567Z,23.20
2019-02-02T17:56:45.475Z,23.20
2019-02-02T17:59:40.719Z,23.10
2019-02-02T18:02:35.422Z,23.10
2019-02-02T18:05:30.275Z,23.10
2019-02-02T18:08:24.962Z,23.00
2019-02-02T18:11:19.810Z,23.00
2019-02-02T18:14:14.870Z,23.00
2019-02-02T18:17:09.712Z,22.90
2019-02-02T18:20:04.627Z,22.90
2019-02-02T18:22:59.184Z,22.90
2019-02-02T18:25:54.058Z,22.90
2019-02-02T18:28:48.756Z,22.90
2019-02-02T18:31:43.432Z,22.80
2019-02-02T18:34:38.023Z,22.80
2019-02-02T18:37:32.714Z,22.80
2019-02-02T18:40:27.957Z,22.80
2019-02-02T18:43:22.714Z,22.80
2019-02-02T18:46:17.423Z,22.70
2019-02-02T18:49:12.221Z,22.70
2019-02-02T18:52:06.643Z,22.70
2019-02-02T18:55:01.450Z,22.70
2019-02-02T18:57:56.063Z,22.60
2019-02-02T19:00:51.049Z,22.60
2019-02-02T19:03:45.690Z,22.60
2019-02-02T19:06:40.543Z,22.60
2019-02-02T19:09:35.114Z,22.50
2019-02-02T19:12:29.741Z,22.50
2019-02-02T19:15:24.590Z,22.50
2019-02-02T19:18:19.594Z,22.50
2019-02-02T19:21:14.143Z,22.50
2019-02-02T19:24:09.362Z,22.50
2019-02-02T19:27:04.202Z,22.40
2019-02-02T19:29:59.184Z,22.40
2019-02-02T19:32:54.174Z,22.40
2019-02-02T19:35:49.004Z,22.40
2019-02-02T19:38:43.799Z,22.40
2019-02-02T19:41:38.355Z,22.40
2019-02-02T19:47:47.819Z,22.40
2019-02-02T19:50:47.923Z,22.30
2019-02-02T19:53:43.078Z,22.30
2019-02-02T19:56:38.267Z,22.30
2019-02-02T19:59:33.261Z,22.30
2019-02-02T20:02:28.156Z,22.30
2019-02-02T20:05:28.762Z,22.30
2019-02-02T20:08:18.574Z,22.20
2019-02-02T20:11:13.285Z,22.20
2019-02-02T20:14:07.679Z,22.20
2019-02-02T20:17:02.354Z,22.20
2019-02-02T20:19:56.820Z,22.20
2019-02-02T20:22:51.551Z,22.10
2019-02-02T20:25:46.548Z,22.10
2019-02-02T20:28:41.159Z,22.10
2019-02-02T20:31:35.815Z,22.10
2019-02-02T20:34:30.562Z,22.00
2019-02-02T20:37:25.200Z,22.00
2019-02-02T20:40:24.793Z,22.00
2019-02-02T20:43:19.292Z,22.00
2019-02-02T20:46:14.216Z,21.90
2019-02-02T20:49:08.903Z,21.90
2019-02-02T20:52:03.617Z,21.90
2019-02-02T20:55:01.054Z,21.90
2019-02-02T20:58:06.721Z,21.90
2019-02-02T21:01:01.578Z,21.80
2019-02-02T21:03:56.650Z,21.80
2019-02-02T21:06:51.451Z,21.80
2019-02-02T21:09:46.288Z,21.80
2019-02-02T21:12:40.964Z,21.80
2019-02-02T21:15:35.827Z,21.80
2019-02-02T21:18:30.835Z,21.80
2019-02-02T21:21:34.123Z,21.80
2019-02-02T21:24:28.712Z,21.80
2019-02-02T21:27:23.992Z,21.80
2019-02-02T21:30:24.304Z,21.80
2019-02-02T21:33:20.742Z,21.80
2019-02-02T21:36:15.451Z,21.70
2019-02-02T21:39:12.631Z,21.70
2019-02-02T21:42:10.813Z,21.70
2019-02-02T21:45:05.399Z,21.70
2019-02-02T21:48:00.440Z,21.70
2019-02-02T21:50:56.113Z,21.70
2019-02-02T21:56:51.400Z,21.70
2019-02-02T21:59:46.603Z,21.60
2019-02-02T22:02:41.698Z,21.60
2019-02-02T22:05:36.426Z,21.60
2019-02-02T22:08:31.375Z,21.50
2019-02-02T22:11:26.034Z,21.50
2019-02-02T22:14:20.972Z,21.50
2019-02-02T22:17:15.742Z,21.50
2019-02-02T22:20:12.266Z,21.50
2019-02-02T22:23:07.246Z,21.40
2019-02-02T22:26:02.173Z,21.50
2019-02-02T22:28:57.950Z,21.40
2019-02-02T22:31:53.075Z,21.40
2019-02-02T22:34:47.976Z,21.40
2019-02-02T22:37:42.888Z,21.40
2019-02-02T22:40:38.068Z,21.40
2019-02-02T22:43:42.243Z,21.30
2019-02-02T22:46:46.377Z,21.30
2019-02-02T22:52:50.495Z,21.30
2019-02-02T22:55:54.279Z,21.30
2019-02-02T22:58:57.547Z,21.30
2019-02-02T23:01:59.937Z,21.30
2019-02-02T23:05:36.468Z,21.20
2019-02-02T23:08:56.989Z,21.20
2019-02-02T23:12:14.907Z,21.20
2019-02-02T23:15:37.931Z,21.20
2019-02-02T23:18:32.663Z,21.20
2019-02-02T23:21:28.153Z,21.20
2019-02-02T23:24:23.295Z,21.10
2019-02-02T23:27:18.211Z,21.10
2019-02-02T23:30:14.137Z,21.10
2019-02-02T23:33:08.943Z,21.10
2019-02-02T23:36:03.576Z,21.10
2019-02-02T23:38:58.531Z,21.10
2019-02-02T23:41:53.287Z,21.10
2019-02-02T23:48:08.365Z,21.00
2019-02-02T23:51:04.414Z,21.00
2019-02-02T23:54:07.572Z,21.00
2019-02-02T23:57:09.344Z,20.90
